createdAt,value
2023-04-09T00:02:02.986Z,99.90
2023-04-09T00:04:29.793Z,99.90
2023-04-09T00:06:56.566Z,99.90
2023-04-09T00:09:23.296Z,99.90
2023-04-09T00:11:49.986Z,99.90
2023-04-09T00:14:16.676Z,99.90
2023-04-09T00:16:43.412Z,99.90
2023-04-09T00:19:11.620Z,99.90
2023-04-09T00:21:38.631Z,99.90
2023-04-09T00:24:05.676Z,99.90
2023-04-09T00:26:32.448Z,99.90
2023-04-09T00:28:59.236Z,99.90
2023-04-09T00:31:25.964Z,99.90
2023-04-09T00:33:52.690Z,99.90
2023-04-09T00:36:19.635Z,99.90
2023-04-09T00:38:47.917Z,99.90
2023-04-09T00:41:14.623Z,99.90
2023-04-09T00:43:41.399Z,99.90
2023-04-09T00:46:08.234Z,99.90
2023-04-09T00:48:35.008Z,99.90
2023-04-09T00:51:02.092Z,99.90
2023-04-09T00:53:28.977Z,99.90
2023-04-09T00:55:55.778Z,99.90
2023-04-09T00:58:22.558Z,99.90
2023-04-09T01:00:49.283Z,99.90
2023-04-09T01:03:16.462Z,99.90
2023-04-09T01:06:14.255Z,99.90
2023-04-09T01:08:56.173Z,99.90
2023-04-09T01:11:36.078Z,99.90
2023-04-09T01:14:22.238Z,99.90
2023-04-09T01:16:56.007Z,99.90
2023-04-09T01:19:44.330Z,99.90
2023-04-09T01:22:29.078Z,99.90
2023-04-09T01:25:17.657Z,99.90
2023-04-09T01:28:07.614Z,99.90
2023-04-09T01:30:34.870Z,99.90
2023-04-09T01:33:03.526Z,99.90
2023-04-09T01:35:30.657Z,99.90
2023-04-09T01:37:58.225Z,99.90
2023-04-09T01:40:25.311Z,99.90
2023-04-09T01:42:53.543Z,99.90
2023-04-09T01:45:21.155Z,99.90
2023-04-09T01:47:48.087Z,99.90
2023-04-09T01:50:15.344Z,99.90
2023-04-09T01:52:42.374Z,99.90
2023-04-09T01:55:09.285Z,99.90
2023-04-09T01:57:36.274Z,99.90
2023-04-09T02:00:03.814Z,99.90
2023-04-09T02:02:46.488Z,99.90
2023-04-09T02:05:17.164Z,99.90
2023-04-09T02:07:47.406Z,99.90
2023-04-09T02:10:17.233Z,99.90
2023-04-09T02:12:49.952Z,99.90
2023-04-09T02:15:17.901Z,99.90
2023-04-09T02:17:44.695Z,99.90
2023-04-09T02:20:12.153Z,99.90
2023-04-09T02:22:39.343Z,99.90
2023-04-09T02:25:06.946Z,99.90
2023-04-09T02:27:33.748Z,99.90
2023-04-09T02:30:00.571Z,99.90
2023-04-09T02:32:27.217Z,99.90
2023-04-09T02:34:54.004Z,99.90
2023-04-09T02:37:20.798Z,99.90
2023-04-09T02:39:47.550Z,99.90
2023-04-09T02:42:14.466Z,99.90
2023-04-09T02:44:41.249Z,99.90
2023-04-09T02:47:07.966Z,99.90
2023-04-09T02:49:34.757Z,99.90
2023-04-09T02:52:01.520Z,99.90
2023-04-09T02:54:28.312Z,99.90
2023-04-09T02:56:55.093Z,99.90
2023-04-09T02:59:21.782Z,99.90
2023-04-09T03:01:48.583Z,99.90
2023-04-09T03:04:15.821Z,99.90
2023-04-09T03:06:42.646Z,99.90
2023-04-09T03:09:09.331Z,99.90
2023-04-09T03:11:36.246Z,99.90
2023-04-09T03:14:02.924Z,99.90
2023-04-09T03:16:29.674Z,99.90
2023-04-09T03:18:56.539Z,99.90
2023-04-09T03:21:23.297Z,99.90
2023-04-09T03:23:50.105Z,99.90
2023-04-09T03:26:16.834Z,99.90
2023-04-09T03:28:43.537Z,99.90
2023-04-09T03:31:10.355Z,99.90
2023-04-09T03:33:37.149Z,99.90
2023-04-09T03:36:04.140Z,99.90
2023-04-09T03:38:31.096Z,99.90
2023-04-09T03:40:57.872Z,99.90
2023-04-09T03:43:24.606Z,99.90
2023-04-09T03:45:51.391Z,99.90
2023-04-09T03:48:18.314Z,99.90
2023-04-09T03:50:44.951Z,99.90
2023-04-09T03:53:11.617Z,99.90
2023-04-09T03:55:38.509Z,99.90
2023-04-09T03:58:05.322Z,99.90
2023-04-09T04:00:32.081Z,99.90
2023-04-09T04:02:59.149Z,99.90
2023-04-09T04:05:26.338Z,99.90
2023-04-09T04:07:53.402Z,99.90
2023-04-09T04:10:20.274Z,99.90
2023-04-09T04:12:47.134Z,99.90
2023-04-09T04:15:14.036Z,99.90
2023-04-09T04:17:40.931Z,99.90
2023-04-09T04:20:08.380Z,99.90
2023-04-09T04:22:35.749Z,99.90
2023-04-09T04:25:04.342Z,99.90
2023-04-09T04:27:31.073Z,99.90
2023-04-09T04:29:59.936Z,99.90
2023-04-09T04:32:26.987Z,99.90
2023-04-09T04:34:54.076Z,99.90
2023-04-09T04:37:21.337Z,99.90
2023-04-09T04:39:48.030Z,99.90
2023-04-09T04:42:14.806Z,99.90
2023-04-09T04:44:41.438Z,99.90
2023-04-09T04:47:08.152Z,99.90
2023-04-09T04:49:34.803Z,99.90
2023-04-09T04:52:01.551Z,99.90
2023-04-09T04:54:28.341Z,99.90
2023-04-09T04:56:56.171Z,99.90
2023-04-09T04:59:22.983Z,99.90
2023-04-09T05:01:49.997Z,99.90
2023-04-09T05:04:16.685Z,99.90
2023-04-09T05:06:43.362Z,99.90
2023-04-09T05:09:10.081Z,99.90
2023-04-09T05:11:36.849Z,99.90
2023-04-09T05:14:04.713Z,99.90
2023-04-09T05:16:32.115Z,99.90
2023-04-09T05:18:59.978Z,99.90
2023-04-09T05:21:27.585Z,99.90
2023-04-09T05:23:54.763Z,99.90
2023-04-09T05:26:21.710Z,99.90
2023-04-09T05:28:48.694Z,99.90
2023-04-09T05:31:15.909Z,99.90
2023-04-09T05:33:43.170Z,99.90
2023-04-09T05:36:18.508Z,99.90
2023-04-09T05:38:46.634Z,99.90
2023-04-09T05:41:13.540Z,99.90
2023-04-09T05:43:40.993Z,99.90
2023-04-09T05:46:07.913Z,99.90
2023-04-09T05:48:37.424Z,99.90
2023-04-09T05:51:04.216Z,99.90
2023-04-09T05:53:32.108Z,99.90
2023-04-09T05:55:58.963Z,99.90
2023-04-09T05:58:25.982Z,99.90
2023-04-09T06:00:52.689Z,99.90
2023-04-09T06:03:19.795Z,99.90
2023-04-09T06:05:46.780Z,99.90
2023-04-09T06:08:14.150Z,99.90
2023-04-09T06:10:41.522Z,99.90
2023-04-09T06:13:09.470Z,99.90
2023-04-09T06:15:38.729Z,99.90
2023-04-09T06:18:05.521Z,99.90
2023-04-09T06:20:32.480Z,99.90
2023-04-09T06:22:59.214Z,99.90
2023-04-09T06:25:26.062Z,99.90
2023-04-09T06:27:52.834Z,99.90
2023-04-09T06:30:19.586Z,99.90
2023-04-09T06:32:54.464Z,99.90
2023-04-09T06:35:22.412Z,99.90
2023-04-09T06:37:49.156Z,99.90
2023-04-09T06:40:16.165Z,99.90
2023-04-09T06:42:43.170Z,99.90
2023-04-09T06:45:10.539Z,99.90
2023-04-09T06:47:37.346Z,99.90
2023-04-09T06:50:04.914Z,99.90
2023-04-09T06:52:31.719Z,99.90
2023-04-09T06:54:58.440Z,99.90
2023-04-09T06:57:26.279Z,99.90
2023-04-09T06:59:53.010Z,99.90
2023-04-09T07:02:19.921Z,99.90
2023-04-09T07:04:47.862Z,99.90
2023-04-09T07:07:14.669Z,99.90
2023-04-09T07:09:42.056Z,99.90
2023-04-09T07:12:08.758Z,99.90
2023-04-09T07:14:35.516Z,99.90
2023-04-09T07:17:02.245Z,99.90
2023-04-09T07:19:29.092Z,99.90
2023-04-09T07:21:55.979Z,99.90
2023-04-09T07:24:22.789Z,99.90
2023-04-09T07:26:51.989Z,99.90
2023-04-09T07:29:20.751Z,99.90
2023-04-09T07:31:47.685Z,99.90
2023-04-09T07:34:14.872Z,99.90
2023-04-09T07:36:42.925Z,99.90
2023-04-09T07:39:09.765Z,99.90
2023-04-09T07:41:37.518Z,99.90
2023-04-09T07:44:06.121Z,99.90
2023-04-09T07:46:32.920Z,99.90
2023-04-09T07:48:59.955Z,99.90
2023-04-09T07:51:27.757Z,99.90
2023-04-09T07:53:54.545Z,99.90
2023-04-09T07:56:21.302Z,99.90
2023-04-09T07:58:49.248Z,99.90
2023-04-09T08:01:16.312Z,99.90
2023-04-09T08:03:43.535Z,99.90
2023-04-09T08:06:10.357Z,99.90
2023-04-09T08:08:37.522Z,99.90
2023-04-09T08:11:04.505Z,99.90
2023-04-09T08:13:31.171Z,99.90
2023-04-09T08:16:01.648Z,99.90
2023-04-09T08:18:29.193Z,99.90
2023-04-09T08:20:57.037Z,99.90
2023-04-09T08:23:23.744Z,99.90
2023-04-09T08:25:50.544Z,99.90
2023-04-09T08:28:17.265Z,99.90
2023-04-09T08:30:44.655Z,99.90
2023-04-09T08:33:11.518Z,99.90
2023-04-09T08:35:40.360Z,99.90
2023-04-09T08:38:07.206Z,99.90
2023-04-09T08:40:37.812Z,99.90
2023-04-09T08:43:06.952Z,99.90
2023-04-09T08:45:33.804Z,99.90
2023-04-09T08:48:03.885Z,99.90
2023-04-09T08:50:32.366Z,99.90
2023-04-09T08:53:02.177Z,99.90
2023-04-09T08:55:29.279Z,99.90
2023-04-09T08:57:56.411Z,99.90
2023-04-09T09:00:23.269Z,99.90
2023-04-09T09:03:11.731Z,99.90
2023-04-09T09:05:43.517Z,99.90
2023-04-09T09:08:22.462Z,99.90
2023-04-09T09:10:49.221Z,99.90
2023-04-09T09:13:26.581Z,99.90
2023-04-09T09:15:56.275Z,99.90
2023-04-09T09:18:42.896Z,99.90
2023-04-09T09:21:14.759Z,99.90
2023-04-09T09:23:42.699Z,99.90
2023-04-09T09:26:14.427Z,99.90
2023-04-09T09:28:41.801Z,99.90
2023-04-09T09:31:12.844Z,99.90
2023-04-09T09:33:40.553Z,99.90
2023-04-09T09:36:09.510Z,99.90
2023-04-09T09:38:54.326Z,99.90
2023-04-09T09:41:22.204Z,99.90
2023-04-09T09:43:49.170Z,99.90
2023-04-09T09:46:16.783Z,99.90
2023-04-09T09:48:46.273Z,99.90
2023-04-09T09:51:14.105Z,99.90
2023-04-09T09:53:43.934Z,99.90
2023-04-09T09:56:19.073Z,99.90
2023-04-09T09:58:53.214Z,99.90
2023-04-09T10:01:23.553Z,99.90
2023-04-09T10:03:51.799Z,99.90
2023-04-09T10:06:18.979Z,99.90
2023-04-09T10:08:48.889Z,99.90
2023-04-09T10:11:16.201Z,99.90
2023-04-09T10:13:51.205Z,99.90
2023-04-09T10:16:19.187Z,99.90
2023-04-09T10:18:46.061Z,99.90
2023-04-09T10:21:37.815Z,99.90
2023-04-09T10:24:07.830Z,99.90
2023-04-09T10:26:35.547Z,99.90
2023-04-09T10:29:08.043Z,99.90
2023-04-09T10:32:06.970Z,99.90
2023-04-09T10:34:40.016Z,99.90
2023-04-09T10:37:16.997Z,99.90
2023-04-09T10:39:48.997Z,99.90
2023-04-09T10:42:19.242Z,99.90
2023-04-09T10:44:46.072Z,99.90
2023-04-09T10:47:31.184Z,99.90
2023-04-09T10:49:57.903Z,99.90
2023-04-09T10:52:30.293Z,99.90
2023-04-09T10:54:57.274Z,99.90
2023-04-09T10:57:24.580Z,99.90
2023-04-09T10:59:55.373Z,99.90
2023-04-09T11:02:34.427Z,99.90
2023-04-09T11:05:33.031Z,99.90
2023-04-09T11:08:06.115Z,99.90
2023-04-09T11:10:37.423Z,99.90
2023-04-09T11:13:04.682Z,99.90
2023-04-09T11:15:34.431Z,99.90
2023-04-09T11:18:02.294Z,99.90
2023-04-09T11:20:31.122Z,99.90
2023-04-09T11:22:59.372Z,99.90
2023-04-09T11:25:27.730Z,99.90
2023-04-09T11:27:54.998Z,99.50
2023-04-09T11:30:22.011Z,98.50
2023-04-09T11:32:49.782Z,98.70
2023-04-09T11:35:22.212Z,99.60
2023-04-09T11:37:50.266Z,98.00
2023-04-09T11:40:23.500Z,99.30
2023-04-09T11:42:52.277Z,98.40
2023-04-09T11:45:21.094Z,99.70
2023-04-09T11:47:48.733Z,97.50
2023-04-09T11:50:16.580Z,96.90
2023-04-09T11:52:45.425Z,97.00
2023-04-09T11:55:13.092Z,96.70
2023-04-09T11:57:47.200Z,95.50
2023-04-09T12:00:15.563Z,95.00
2023-04-09T12:02:47.683Z,94.50
2023-04-09T12:05:23.374Z,93.50
2023-04-09T12:07:56.312Z,91.30
2023-04-09T12:10:31.117Z,92.70
2023-04-09T12:13:06.665Z,90.80
2023-04-09T12:15:37.009Z,89.90
2023-04-09T12:18:04.407Z,88.50
2023-04-09T12:20:35.852Z,88.40
2023-04-09T12:23:04.580Z,86.30
2023-04-09T12:25:36.638Z,89.10
2023-04-09T12:28:04.369Z,91.10
2023-04-09T12:30:31.572Z,90.20
2023-04-09T12:32:58.744Z,90.90
2023-04-09T12:35:25.672Z,91.40
2023-04-09T12:37:52.713Z,91.60
2023-04-09T12:40:20.400Z,91.90
2023-04-09T12:42:48.216Z,91.10
2023-04-09T12:45:17.514Z,88.90
2023-04-09T12:47:44.976Z,86.30
2023-04-09T12:50:13.007Z,79.70
2023-04-09T12:52:39.854Z,75.10
2023-04-09T12:55:07.644Z,68.90
2023-04-09T12:57:34.877Z,56.10
2023-04-09T13:00:01.575Z,51.00
2023-04-09T13:02:28.502Z,48.10
2023-04-09T13:04:55.430Z,44.60
2023-04-09T13:07:22.864Z,44.80
2023-04-09T13:09:50.463Z,45.60
2023-04-09T13:12:17.798Z,44.70
2023-04-09T13:14:46.634Z,41.10
2023-04-09T13:17:13.776Z,41.20
2023-04-09T13:19:42.717Z,44.20
2023-04-09T13:22:10.670Z,48.60
2023-04-09T13:24:38.337Z,51.20
2023-04-09T13:27:06.192Z,53.40
2023-04-09T13:29:32.978Z,53.20
2023-04-09T13:32:01.783Z,54.30
2023-04-09T13:34:28.694Z,56.60
2023-04-09T13:36:55.373Z,51.30
2023-04-09T13:39:22.031Z,48.90
2023-04-09T13:41:48.846Z,44.90
2023-04-09T13:44:15.692Z,45.50
2023-04-09T13:46:42.459Z,42.10
2023-04-09T13:49:09.238Z,40.30
2023-04-09T13:51:36.059Z,41.30
2023-04-09T13:54:05.308Z,43.60
2023-04-09T13:56:32.818Z,46.40
2023-04-09T13:58:59.934Z,49.90
2023-04-09T14:01:27.983Z,53.00
2023-04-09T14:03:55.114Z,54.60
2023-04-09T14:06:22.304Z,49.80
2023-04-09T14:08:48.999Z,47.90
2023-04-09T14:11:16.883Z,49.70
2023-04-09T14:13:43.689Z,52.50
2023-04-09T14:16:11.097Z,53.90
2023-04-09T14:18:39.371Z,53.40
2023-04-09T14:21:08.713Z,51.70
2023-04-09T14:23:37.033Z,52.60
2023-04-09T14:26:04.947Z,52.70
2023-04-09T14:28:32.385Z,54.40
2023-04-09T14:31:00.747Z,55.30
2023-04-09T14:33:27.985Z,56.20
2023-04-09T14:35:55.160Z,56.40
2023-04-09T14:38:23.971Z,56.80
2023-04-09T14:40:51.444Z,58.40
2023-04-09T14:43:18.562Z,59.70
2023-04-09T14:45:45.288Z,57.80
2023-04-09T14:48:12.084Z,58.10
2023-04-09T14:50:38.907Z,57.10
2023-04-09T14:53:05.800Z,59.10
2023-04-09T14:55:32.554Z,59.10
2023-04-09T14:57:59.894Z,59.20
2023-04-09T15:00:26.699Z,59.00
2023-04-09T15:02:53.645Z,60.70
2023-04-09T15:05:20.780Z,60.20
2023-04-09T15:07:47.540Z,58.80
2023-04-09T15:10:14.989Z,61.30
2023-04-09T15:12:41.746Z,59.90
2023-04-09T15:15:09.470Z,58.80
2023-04-09T15:17:36.763Z,59.50
2023-04-09T15:20:04.198Z,61.20
2023-04-09T15:22:31.120Z,59.20
2023-04-09T15:24:57.891Z,56.90
2023-04-09T15:27:24.918Z,51.10
2023-04-09T15:29:52.060Z,51.10
2023-04-09T15:32:19.259Z,50.30
2023-04-09T15:34:46.166Z,47.80
2023-04-09T15:37:12.924Z,46.60
2023-04-09T15:39:39.702Z,49.60
2023-04-09T15:42:08.604Z,52.00
2023-04-09T15:44:36.360Z,53.00
2023-04-09T15:47:03.167Z,50.80
2023-04-09T15:49:30.158Z,50.70
2023-04-09T15:51:56.920Z,48.70
2023-04-09T15:54:23.693Z,47.50
2023-04-09T15:56:50.482Z,46.10
2023-04-09T15:59:18.843Z,46.80
2023-04-09T16:01:45.952Z,46.80
2023-04-09T16:04:12.891Z,45.40
2023-04-09T16:06:39.788Z,45.50
2023-04-09T16:09:06.527Z,46.70
2023-04-09T16:11:35.894Z,48.20
2023-04-09T16:14:02.687Z,47.30
2023-04-09T16:16:29.561Z,48.60
2023-04-09T16:18:56.372Z,50.30
2023-04-09T16:21:23.188Z,51.80
2023-04-09T16:23:49.853Z,54.20
2023-04-09T16:26:16.530Z,53.70
2023-04-09T16:28:43.242Z,54.70
2023-04-09T16:31:09.929Z,54.10
2023-04-09T16:33:36.722Z,56.30
2023-04-09T16:36:03.571Z,56.70
2023-04-09T16:38:31.198Z,58.00
2023-04-09T16:40:58.223Z,57.70
2023-04-09T16:43:25.366Z,57.90
2023-04-09T16:45:52.319Z,58.50
2023-04-09T16:48:19.272Z,59.00
2023-04-09T16:50:45.980Z,60.60
2023-04-09T16:53:12.908Z,60.40
2023-04-09T16:55:39.726Z,62.20
2023-04-09T16:58:06.696Z,62.30
2023-04-09T17:00:33.705Z,63.90
2023-04-09T17:03:00.880Z,64.00
2023-04-09T17:05:27.651Z,62.70
2023-04-09T17:07:54.421Z,64.00
2023-04-09T17:10:21.331Z,64.30
2023-04-09T17:12:48.418Z,63.90
2023-04-09T17:15:15.235Z,64.50
2023-04-09T17:17:43.691Z,65.70
2023-04-09T17:20:11.323Z,65.70
2023-04-09T17:22:39.233Z,65.40
2023-04-09T17:25:06.571Z,66.00
2023-04-09T17:27:33.445Z,66.60
2023-04-09T17:30:00.224Z,67.20
2023-04-09T17:32:27.726Z,67.20
2023-04-09T17:34:54.534Z,67.60
2023-04-09T17:37:21.654Z,67.70
2023-04-09T17:39:48.721Z,67.60
2023-04-09T17:42:15.502Z,68.40
2023-04-09T17:44:43.863Z,68.60
2023-04-09T17:47:12.506Z,70.00
2023-04-09T17:49:39.829Z,69.60
2023-04-09T17:52:06.589Z,70.90
2023-04-09T17:54:38.188Z,69.20
2023-04-09T17:57:07.082Z,69.10
2023-04-09T17:59:34.677Z,70.10
2023-04-09T18:02:02.276Z,70.00
2023-04-09T18:04:29.476Z,70.70
2023-04-09T18:06:56.674Z,71.00
2023-04-09T18:09:23.372Z,71.70
2023-04-09T18:11:54.862Z,72.70
2023-04-09T18:14:22.004Z,72.70
2023-04-09T18:16:49.101Z,74.40
2023-04-09T18:19:15.963Z,74.30
2023-04-09T18:21:42.641Z,74.40
2023-04-09T18:24:09.472Z,75.20
2023-04-09T18:26:36.732Z,75.40
2023-04-09T18:29:03.569Z,76.00
2023-04-09T18:31:30.585Z,76.40
2023-04-09T18:33:57.355Z,77.40
2023-04-09T18:36:24.272Z,78.00
2023-04-09T18:38:52.020Z,79.50
2023-04-09T18:41:26.629Z,79.80
2023-04-09T18:43:54.232Z,80.30
2023-04-09T18:46:20.963Z,81.50
2023-04-09T18:48:47.809Z,83.00
2023-04-09T18:51:14.799Z,84.10
2023-04-09T18:53:42.135Z,85.40
2023-04-09T18:56:09.352Z,86.20
2023-04-09T18:58:36.721Z,88.00
2023-04-09T19:01:12.891Z,89.10
2023-04-09T19:03:40.704Z,90.30
2023-04-09T19:06:12.973Z,91.00
2023-04-09T19:08:39.980Z,91.30
2023-04-09T19:11:07.873Z,91.70
2023-04-09T19:13:34.793Z,92.20
2023-04-09T19:16:02.178Z,92.80
2023-04-09T19:18:29.490Z,93.20
2023-04-09T19:20:56.433Z,94.00
2023-04-09T19:23:23.379Z,94.40
2023-04-09T19:25:55.380Z,94.40
2023-04-09T19:28:22.884Z,94.60
2023-04-09T19:30:53.711Z,94.30
2023-04-09T19:33:22.138Z,94.70
2023-04-09T19:35:49.580Z,95.00
2023-04-09T19:38:17.242Z,95.40
2023-04-09T19:40:44.450Z,95.50
2023-04-09T19:43:11.560Z,95.50
2023-04-09T19:45:39.290Z,95.50
2023-04-09T19:48:07.082Z,95.90
2023-04-09T19:50:38.260Z,96.30
2023-04-09T19:53:06.062Z,96.70
2023-04-09T19:55:35.934Z,96.90
2023-04-09T19:58:03.263Z,97.20
2023-04-09T20:00:30.550Z,97.40
2023-04-09T20:02:57.714Z,97.90
2023-04-09T20:05:25.022Z,98.30
2023-04-09T20:07:52.919Z,98.30
2023-04-09T20:10:20.387Z,98.40
2023-04-09T20:12:48.858Z,98.60
2023-04-09T20:15:17.556Z,99.00
2023-04-09T20:17:44.650Z,99.50
2023-04-09T20:20:12.167Z,99.90
2023-04-09T20:22:43.186Z,99.90
2023-04-09T20:25:11.974Z,99.90
2023-04-09T20:27:38.860Z,99.90
2023-04-09T20:30:07.017Z,99.90
2023-04-09T20:32:35.792Z,99.90
2023-04-09T20:35:02.565Z,99.90
2023-04-09T20:37:29.309Z,99.90
2023-04-09T20:39:56.329Z,99.90
2023-04-09T20:42:23.314Z,99.90
2023-04-09T20:44:49.965Z,99.90
2023-04-09T20:47:16.688Z,99.90
2023-04-09T20:49:43.495Z,99.90
2023-04-09T20:52:10.282Z,99.90
2023-04-09T20:54:37.102Z,99.90
2023-04-09T20:57:05.577Z,99.90
2023-04-09T20:59:32.835Z,99.90
2023-04-09T21:01:59.676Z,99.90
2023-04-09T21:04:26.593Z,99.90
2023-04-09T21:06:53.364Z,99.90
2023-04-09T21:09:20.092Z,99.90
2023-04-09T21:11:46.886Z,99.90
2023-04-09T21:14:14.588Z,99.90
2023-04-09T21:16:41.441Z,99.90
2023-04-09T21:19:08.198Z,99.90
2023-04-09T21:21:35.681Z,99.90
2023-04-09T21:24:03.902Z,99.90
2023-04-09T21:26:44.975Z,99.90
2023-04-09T21:29:15.725Z,99.90
2023-04-09T21:31:42.387Z,99.90
2023-04-09T21:34:09.174Z,99.90
2023-04-09T21:36:39.213Z,99.90
2023-04-09T21:39:06.022Z,99.90
2023-04-09T21:41:32.790Z,99.90
2023-04-09T21:44:05.157Z,99.90
2023-04-09T21:46:31.823Z,99.90
2023-04-09T21:48:58.514Z,99.90
2023-04-09T21:51:25.343Z,99.90
2023-04-09T21:53:52.084Z,99.90
2023-04-09T21:56:18.708Z,99.90
2023-04-09T21:58:45.641Z,99.90
2023-04-09T22:01:22.612Z,99.90
2023-04-09T22:03:55.156Z,99.90
2023-04-09T22:06:21.932Z,99.90
2023-04-09T22:08:55.570Z,99.90
2023-04-09T22:11:28.438Z,99.90
2023-04-09T22:13:57.049Z,99.90
2023-04-09T22:16:24.661Z,99.90
2023-04-09T22:18:52.674Z,99.90
2023-04-09T22:21:19.671Z,99.90
2023-04-09T22:23:46.447Z,99.90
2023-04-09T22:26:13.406Z,99.90
2023-04-09T22:28:40.282Z,99.90
2023-04-09T22:31:07.365Z,99.90
2023-04-09T22:33:34.120Z,99.90
2023-04-09T22:36:00.866Z,99.90
2023-04-09T22:38:27.718Z,99.90
2023-04-09T22:40:54.562Z,99.90
2023-04-09T22:43:21.336Z,99.90
2023-04-09T22:45:52.299Z,99.90
2023-04-09T22:48:20.428Z,99.90
2023-04-09T22:50:48.686Z,99.90
2023-04-09T22:53:19.319Z,99.90
2023-04-09T22:55:51.325Z,99.90
2023-04-09T22:58:18.731Z,99.90
2023-04-09T23:00:46.984Z,99.90
2023-04-09T23:03:14.083Z,99.90
2023-04-09T23:05:41.247Z,99.90
2023-04-09T23:08:07.985Z,99.90
2023-04-09T23:10:35.483Z,99.90
2023-04-09T23:13:02.325Z,99.90
2023-04-09T23:15:29.014Z,99.90
2023-04-09T23:17:56.255Z,99.90
2023-04-09T23:20:23.348Z,99.90
2023-04-09T23:22:50.421Z,99.90
2023-04-09T23:25:17.585Z,99.90
2023-04-09T23:27:44.779Z,99.90
2023-04-09T23:30:16.594Z,99.90
2023-04-09T23:32:46.866Z,99.90
2023-04-09T23:35:13.990Z,99.90
2023-04-09T23:37:42.420Z,99.90
2023-04-09T23:40:10.526Z,99.90
2023-04-09T23:42:37.230Z,99.90
2023-04-09T23:45:05.660Z,99.90
2023-04-09T23:47:34.262Z,99.90
2023-04-09T23:50:04.910Z,99.90
2023-04-09T23:52:37.057Z,99.90
2023-04-09T23:55:05.311Z,99.90
2023-04-09T23:57:32.101Z,99.90
2023-04-09T23:59:58.931Z,99.90
